Decoded Metar for LFPO (PARIS ORLY in FRANCE) (IATA:ORY) | Meteo·Mobile Aviation Weather
aviador You're here:

LFPO Decoded Metar

PARIS ORLY in FRANCE
Report Time2018-11-12 23:00:00
UTC Time2018-11-12 23:20:12
Flight Rules ifr IFR
Wind200° at 07 kt
W.Decomp.*RWY 20: 7.0 kt HW 0.1 kt RCW
RWY 24: 5.4 kt HW 4.4 kt LCW
RWY 26: 3.6 kt HW 6 kt LCW
W.Rank200° ranks 2
Current wind is above 200° avg. (6.8)
Visibility7000 m
Phenomena:N/A
Clouds:Broken 005 Hf
Broken 130 Hf
Ceiling500 ft
Temp10°C (ISA -4)
Dew Point10°C (100% RH)
AAT7.5°C
QNH1020 hPa
Density Alt-279 ft
Elevation315 ft
Report Wrong Elevation
Raw Report
LFPO 122300Z 20007KT 7000 BKN005 BKN130 10/10 Q1020 TEMPO
SCT005=

Extra information for LFPO:More info

Metar Taf Metar & Taf Last 4 Metars F.Rules Stats Wind Profile Meteogram Temp Stats Airport Information Weather charts Add Link Nearby VenuesMetar ALERT Operation Metar Decoded Social comments